Time;durP1;ratioP1;P1;durP2;ratioP2;P2;SDS_P1;SDS_P2;PMS_P1;PMS_P2;Temp;Humidity;BMP_temperature;BMP_pressure;BME280_temperature;BME280_humidity;BME280_pressure;Samples;Min_cycle;Max_cycle;Signal;HPM_P1;HPM_P2
2022/07/24 00:00:51;;;;;;;44.07;41.60;;;22.80;77.30;;;;;;4970746;28;20558;-68
2022/07/24 00:03:18;;;;;;;44.77;42.07;;;22.80;77.10;;;;;;4969459;28;20577;-68
2022/07/24 00:05:45;;;;;;;42.63;40.17;;;22.80;77.30;;;;;;4969288;28;20577;-69
2022/07/24 00:08:12;;;;;;;45.50;42.80;;;22.70;77.30;;;;;;4970204;28;20557;-68
2022/07/24 00:10:40;;;;;;;45.40;42.70;;;22.70;77.40;;;;;;4968306;28;20504;-68
2022/07/24 00:13:07;;;;;;;42.77;40.27;;;22.80;77.40;;;;;;4971548;28;20608;-68
2022/07/24 00:15:34;;;;;;;44.30;41.80;;;22.60;77.80;;;;;;4968422;28;20567;-68
2022/07/24 00:18:01;;;;;;;46.57;43.93;;;22.60;77.90;;;;;;4970265;28;20887;-68
2022/07/24 00:20:28;;;;;;;45.83;43.33;;;22.60;78.10;;;;;;4969200;28;21070;-68
2022/07/24 00:22:55;;;;;;;44.60;42.17;;;22.50;78.30;;;;;;4971506;28;20474;-68
2022/07/24 00:25:22;;;;;;;43.53;40.97;;;22.40;78.20;;;;;;4968272;28;21067;-68
2022/07/24 00:27:50;;;;;;;42.70;40.30;;;22.40;78.20;;;;;;4975644;28;21066;-68
2022/07/24 00:30:17;;;;;;;44.60;41.70;;;22.50;78.20;;;;;;4974633;28;21120;-68
2022/07/24 00:32:44;;;;;;;44.03;41.53;;;22.50;78.00;;;;;;4969971;28;21011;-68
2022/07/24 00:35:12;;;;;;;42.97;40.53;;;22.50;77.90;;;;;;4980968;28;20637;-68
2022/07/24 00:37:39;;;;;;;46.40;43.80;;;22.40;78.40;;;;;;4967357;28;20472;-68
2022/07/24 00:40:07;;;;;;;44.17;41.73;;;22.30;78.70;;;;;;4967592;28;20563;-68
2022/07/24 00:42:34;;;;;;;44.53;41.93;;;22.20;79.10;;;;;;4973968;28;20484;-68
2022/07/24 00:45:04;;;;;;;44.60;42.03;;;22.20;79.20;;;;;;4967252;28;20573;-68
2022/07/24 00:47:31;;;;;;;43.77;41.20;;;22.10;79.50;;;;;;4968565;28;20474;-67
2022/07/24 00:49:58;;;;;;;44.63;41.93;;;22.10;79.40;;;;;;4971818;28;20588;-68
2022/07/24 00:52:25;;;;;;;42.67;40.00;;;22.00;79.50;;;;;;4970188;28;20856;-69
2022/07/24 00:54:52;;;;;;;44.20;41.70;;;22.10;79.40;;;;;;4965254;28;20473;-68
2022/07/24 00:57:19;;;;;;;44.60;42.00;;;22.00;79.70;;;;;;4968201;28;20462;-68
2022/07/24 00:59:45;;;;;;;43.80;41.33;;;21.90;80.10;;;;;;4968841;28;21218;-68
2022/07/24 01:02:14;;;;;;;45.67;42.70;;;21.90;80.10;;;;;;4967079;28;20551;-70
2022/07/24 01:04:41;;;;;;;43.93;41.43;;;21.90;80.00;;;;;;4969189;28;20551;-70
2022/07/24 01:07:08;;;;;;;43.67;41.00;;;21.80;80.20;;;;;;4970212;28;20544;-70
2022/07/24 01:09:36;;;;;;;44.43;41.93;;;21.80;80.40;;;;;;4972818;28;20523;-70
2022/07/24 01:12:04;;;;;;;44.73;42.10;;;21.80;80.20;;;;;;4982743;28;20907;-70
2022/07/24 01:14:33;;;;;;;44.17;41.77;;;21.70;80.40;;;;;;4975294;28;20561;-71
2022/07/24 01:17:00;;;;;;;44.63;42.23;;;21.70;80.30;;;;;;4977726;28;20478;-70
2022/07/24 01:19:28;;;;;;;43.37;41.07;;;21.80;80.10;;;;;;4966846;28;20942;-73
2022/07/24 01:21:56;;;;;;;43.17;40.80;;;21.80;79.80;;;;;;4969060;28;20464;-70
2022/07/24 01:24:23;;;;;;;43.27;40.90;;;21.70;79.80;;;;;;4974243;28;21021;-70
2022/07/24 01:26:50;;;;;;;43.73;41.30;;;21.70;79.80;;;;;;4967694;28;20468;-70
2022/07/24 01:29:18;;;;;;;44.40;41.90;;;21.80;79.60;;;;;;4965380;28;20836;-70
2022/07/24 01:31:45;;;;;;;44.30;42.00;;;21.80;79.30;;;;;;4967207;28;20593;-68
2022/07/24 01:34:12;;;;;;;44.50;42.20;;;21.80;79.30;;;;;;4968589;28;20762;-68
2022/07/24 01:36:40;;;;;;;45.17;42.67;;;21.70;79.60;;;;;;4969026;28;21112;-68
2022/07/24 01:39:08;;;;;;;47.23;44.53;;;21.70;79.60;;;;;;4967996;28;20567;-68
2022/07/24 01:41:35;;;;;;;45.57;42.97;;;21.80;79.50;;;;;;4968007;28;20542;-68
2022/07/24 01:44:02;;;;;;;43.80;41.30;;;21.70;79.60;;;;;;4967737;28;20464;-68
2022/07/24 01:46:29;;;;;;;47.13;44.43;;;21.70;79.60;;;;;;4968164;28;20552;-68
2022/07/24 01:48:56;;;;;;;43.77;41.47;;;21.70;79.50;;;;;;4969015;28;20907;-68
2022/07/24 01:51:23;;;;;;;41.50;39.10;;;21.80;79.60;;;;;;4966704;28;20950;-68
2022/07/24 01:53:51;;;;;;;40.73;38.53;;;21.80;79.60;;;;;;4967571;28;20462;-68
2022/07/24 01:56:20;;;;;;;41.07;38.70;;;21.60;79.70;;;;;;4970196;28;20542;-68
2022/07/24 01:58:47;;;;;;;41.03;38.70;;;21.60;80.00;;;;;;4968601;28;20485;-68
2022/07/24 02:01:13;;;;;;;41.10;38.80;;;21.60;79.70;;;;;;4963700;28;20552;-68
2022/07/24 02:03:40;;;;;;;46.57;43.80;;;21.60;79.80;;;;;;4965538;28;20554;-69
2022/07/24 02:06:08;;;;;;;46.60;43.90;;;21.50;80.10;;;;;;4968142;28;21048;-68
2022/07/24 02:08:35;;;;;;;41.67;39.10;;;21.50;80.30;;;;;;4968204;28;20511;-68
2022/07/24 02:11:02;;;;;;;43.73;41.17;;;21.50;80.10;;;;;;4966767;28;20567;-68
2022/07/24 02:13:30;;;;;;;41.17;38.97;;;21.50;79.90;;;;;;4967339;28;20469;-68
2022/07/24 02:15:57;;;;;;;41.50;39.10;;;21.50;79.80;;;;;;4966558;28;20469;-68
2022/07/24 02:18:24;;;;;;;41.47;39.07;;;21.40;80.10;;;;;;4970296;28;20492;-68
2022/07/24 02:20:51;;;;;;;41.10;38.80;;;21.40;80.10;;;;;;4970073;28;20464;-68
2022/07/24 02:23:18;;;;;;;41.47;38.87;;;21.40;80.10;;;;;;4966466;28;20545;-68
2022/07/24 02:25:46;;;;;;;40.57;38.40;;;21.50;79.80;;;;;;4968268;28;20551;-70
2022/07/24 02:28:14;;;;;;;42.87;40.37;;;21.40;79.70;;;;;;4966981;28;20567;-70
2022/07/24 02:30:42;;;;;;;43.33;40.93;;;21.40;79.80;;;;;;4966647;28;20571;-70
2022/07/24 02:33:10;;;;;;;40.97;38.77;;;21.40;80.00;;;;;;4967931;28;20465;-70
2022/07/24 02:35:38;;;;;;;42.50;40.20;;;21.30;80.00;;;;;;4973643;28;20750;-70
2022/07/24 02:38:05;;;;;;;39.93;37.57;;;21.30;79.80;;;;;;4967138;28;20536;-70
2022/07/24 02:40:33;;;;;;;44.37;42.07;;;21.30;79.60;;;;;;4967575;28;20546;-70
2022/07/24 02:43:00;;;;;;;40.77;38.63;;;21.30;79.80;;;;;;4975110;28;20565;-71
2022/07/24 02:45:27;;;;;;;41.70;39.40;;;21.20;80.00;;;;;;4970809;28;20543;-70
2022/07/24 02:47:56;;;;;;;41.43;39.13;;;21.10;80.10;;;;;;4967550;28;20549;-70
2022/07/24 02:50:29;;;;;;;40.90;38.30;;;21.10;80.20;;;;;;4967634;28;20601;-70
2022/07/24 02:52:57;;;;;;;39.27;36.97;;;21.10;80.10;;;;;;4967517;28;20465;-70
2022/07/24 02:55:24;;;;;;;42.03;39.20;;;21.10;79.70;;;;;;4968391;28;20495;-70
2022/07/24 02:57:51;;;;;;;40.50;38.30;;;21.20;79.60;;;;;;4967852;28;21184;-70
2022/07/24 03:00:18;;;;;;;42.20;39.73;;;21.20;79.60;;;;;;4966084;28;20478;-70
2022/07/24 03:02:46;;;;;;;66.10;62.57;;;21.20;79.60;;;;;;4970591;28;20546;-70
2022/07/24 03:05:14;;;;;;;39.07;36.93;;;21.10;79.50;;;;;;4969921;28;20599;-70
2022/07/24 03:07:42;;;;;;;51.70;48.90;;;21.10;79.50;;;;;;4966938;28;20460;-70
2022/07/24 03:10:11;;;;;;;39.47;37.37;;;21.10;79.40;;;;;;4964609;28;20528;-70
2022/07/24 03:12:38;;;;;;;41.13;38.93;;;21.10;79.10;;;;;;4967398;28;20560;-70
2022/07/24 03:15:06;;;;;;;40.47;38.23;;;21.10;78.90;;;;;;4967160;28;20550;-70
2022/07/24 03:18:04;;;;;;;42.23;39.73;;;21.10;79.20;;;;;;4968021;28;20534;-71
2022/07/24 03:20:32;;;;;;;40.03;37.83;;;21.00;79.40;;;;;;4969006;28;20459;-70
2022/07/24 03:22:59;;;;;;;41.37;39.10;;;21.00;79.80;;;;;;4964074;28;20811;-70
2022/07/24 03:25:26;;;;;;;41.90;39.60;;;21.00;80.00;;;;;;4966804;28;20468;-68
2022/07/24 03:27:53;;;;;;;40.97;38.77;;;21.00;80.00;;;;;;4966045;28;20455;-68
2022/07/24 03:30:21;;;;;;;38.77;36.57;;;20.90;79.80;;;;;;4965194;28;20487;-68
2022/07/24 03:32:48;;;;;;;40.20;37.80;;;20.90;79.90;;;;;;4964269;28;20816;-68
2022/07/24 03:35:15;;;;;;;43.00;40.70;;;20.90;80.10;;;;;;4967737;28;20459;-68
2022/07/24 03:37:43;;;;;;;42.67;40.07;;;20.90;80.00;;;;;;4968092;28;20580;-68
2022/07/24 03:40:11;;;;;;;42.70;40.20;;;20.90;79.90;;;;;;4971624;28;20575;-68
2022/07/24 03:42:38;;;;;;;40.37;38.13;;;20.90;79.90;;;;;;4966720;28;20470;-68
2022/07/24 03:45:06;;;;;;;41.47;39.07;;;20.90;79.70;;;;;;4965322;28;20552;-68
2022/07/24 03:47:33;;;;;;;46.30;43.90;;;20.90;79.80;;;;;;4969996;28;20469;-68
2022/07/24 03:50:00;;;;;;;42.33;40.13;;;20.90;79.80;;;;;;4965396;28;20475;-67
2022/07/24 03:52:27;;;;;;;42.93;40.63;;;20.90;79.80;;;;;;4966049;28;20480;-68
2022/07/24 03:54:55;;;;;;;42.43;40.03;;;20.90;79.80;;;;;;4965808;28;20472;-68
2022/07/24 03:57:22;;;;;;;45.90;43.40;;;20.80;80.20;;;;;;4966279;28;20499;-68
2022/07/24 03:59:49;;;;;;;41.30;39.10;;;20.80;80.40;;;;;;4963428;28;20493;-68
2022/07/24 04:02:16;;;;;;;41.70;39.40;;;20.70;80.60;;;;;;4966739;28;20466;-68
2022/07/24 04:04:43;;;;;;;41.17;38.87;;;20.70;80.80;;;;;;4969827;28;20479;-68
2022/07/24 04:07:10;;;;;;;43.50;41.07;;;20.80;80.70;;;;;;4970753;28;20463;-68
2022/07/24 04:09:36;;;;;;;42.00;39.50;;;20.80;80.60;;;;;;4966912;28;20494;-68
2022/07/24 04:12:05;;;;;;;42.40;40.10;;;20.90;80.20;;;;;;4968463;28;20645;-68
2022/07/24 04:14:32;;;;;;;40.80;38.13;;;20.90;80.20;;;;;;4967469;28;20463;-68
2022/07/24 04:16:59;;;;;;;42.90;40.67;;;20.90;80.10;;;;;;4968254;28;20459;-68
2022/07/24 04:19:26;;;;;;;43.47;41.00;;;20.90;80.50;;;;;;4969190;28;20489;-68
2022/07/24 04:21:52;;;;;;;40.67;38.57;;;20.90;80.50;;;;;;4977311;28;20459;-68
2022/07/24 04:24:19;;;;;;;41.20;38.80;;;21.00;80.30;;;;;;4968697;28;20473;-68
2022/07/24 04:26:46;;;;;;;42.00;39.80;;;21.00;80.10;;;;;;4968670;28;20915;-68
2022/07/24 04:29:15;;;;;;;41.57;39.00;;;21.10;79.70;;;;;;4967612;28;20474;-68
2022/07/24 04:31:41;;;;;;;48.93;46.20;;;21.10;79.70;;;;;;4979273;28;20967;-68
2022/07/24 04:34:08;;;;;;;41.47;38.87;;;21.00;80.10;;;;;;4969692;28;20550;-68
2022/07/24 04:36:35;;;;;;;42.47;39.97;;;21.00;80.00;;;;;;4969896;28;20978;-68
2022/07/24 04:39:02;;;;;;;49.13;46.20;;;21.00;80.00;;;;;;4964053;28;20932;-68
2022/07/24 04:41:29;;;;;;;42.50;40.30;;;21.10;79.90;;;;;;4963465;28;20807;-70
2022/07/24 04:43:56;;;;;;;46.80;44.40;;;21.20;79.40;;;;;;4967419;28;20977;-70
2022/07/24 04:46:24;;;;;;;46.10;43.77;;;21.20;79.20;;;;;;4971960;28;20459;-70
2022/07/24 04:48:51;;;;;;;41.53;39.23;;;21.20;79.10;;;;;;4968264;28;20489;-70
2022/07/24 04:51:18;;;;;;;39.93;37.63;;;21.20;79.30;;;;;;4968945;28;20863;-71
2022/07/24 04:53:46;;;;;;;40.60;38.30;;;21.40;78.70;;;;;;4970718;28;20465;-71
2022/07/24 04:56:13;;;;;;;42.40;40.17;;;21.40;78.30;;;;;;4970475;28;20909;-71
2022/07/24 04:58:40;;;;;;;41.00;38.70;;;21.30;78.60;;;;;;4970019;28;20488;-73
2022/07/24 05:01:07;;;;;;;42.67;40.40;;;21.30;78.50;;;;;;4972512;28;20455;-70
2022/07/24 05:03:35;;;;;;;41.77;39.60;;;21.30;78.30;;;;;;4969773;28;20463;-70
2022/07/24 05:06:02;;;;;;;44.70;42.40;;;21.40;78.10;;;;;;4973119;28;20466;-71
2022/07/24 05:08:28;;;;;;;47.43;44.80;;;21.50;77.80;;;;;;4968005;28;20482;-70
2022/07/24 05:10:55;;;;;;;42.33;40.13;;;21.60;77.50;;;;;;4969574;28;20602;-70
2022/07/24 05:13:22;;;;;;;37.97;35.97;;;21.50;77.50;;;;;;4972875;28;20461;-70
2022/07/24 05:15:49;;;;;;;40.50;38.30;;;21.60;77.50;;;;;;4967787;28;20543;-70
2022/07/24 05:18:16;;;;;;;39.63;37.43;;;21.60;77.70;;;;;;4970914;28;20465;-70
2022/07/24 05:20:44;;;;;;;40.03;37.67;;;21.80;77.40;;;;;;4976510;28;20487;-70
2022/07/24 05:23:11;;;;;;;38.13;36.07;;;22.00;76.40;;;;;;4967213;28;20476;-71
2022/07/24 05:25:38;;;;;;;40.80;38.50;;;22.10;76.10;;;;;;4968840;28;21015;-70
2022/07/24 05:28:06;;;;;;;40.60;38.30;;;22.20;75.90;;;;;;4968762;28;20499;-71
2022/07/24 05:30:33;;;;;;;41.23;39.07;;;22.30;75.60;;;;;;4967199;28;20474;-71
2022/07/24 05:33:00;;;;;;;57.00;53.80;;;22.40;75.30;;;;;;4973617;28;20880;-71
2022/07/24 05:35:27;;;;;;;45.07;42.57;;;22.60;75.10;;;;;;4963935;28;20468;-70
2022/07/24 05:37:55;;;;;;;40.73;38.43;;;22.70;74.30;;;;;;4973552;28;20469;-73
2022/07/24 05:40:22;;;;;;;41.20;38.90;;;22.90;73.90;;;;;;4969041;28;20505;-71
2022/07/24 05:42:49;;;;;;;44.63;42.17;;;22.90;73.70;;;;;;4966841;28;20941;-70
2022/07/24 05:45:16;;;;;;;44.17;41.77;;;22.90;73.60;;;;;;4969823;28;20454;-70
2022/07/24 05:47:43;;;;;;;40.47;38.37;;;22.90;73.50;;;;;;4969515;28;20957;-68
2022/07/24 05:50:12;;;;;;;42.73;40.47;;;23.00;73.40;;;;;;4974327;28;20582;-68
2022/07/24 05:52:39;;;;;;;39.50;37.33;;;23.10;73.60;;;;;;4967840;28;20481;-68
2022/07/24 05:55:09;;;;;;;38.80;36.60;;;23.30;73.30;;;;;;4964605;28;20474;-68
2022/07/24 05:57:36;;;;;;;41.27;38.90;;;23.50;72.70;;;;;;4967947;28;20542;-68
2022/07/24 06:00:04;;;;;;;39.23;37.10;;;23.70;72.20;;;;;;4967658;28;20493;-68
2022/07/24 06:02:31;;;;;;;41.40;39.20;;;23.90;71.50;;;;;;4969059;28;20451;-68
2022/07/24 06:04:58;;;;;;;39.83;37.63;;;24.00;70.90;;;;;;4963465;28;20469;-68
2022/07/24 06:07:25;;;;;;;40.70;38.57;;;24.10;70.40;;;;;;4967554;28;20463;-68
2022/07/24 06:09:52;;;;;;;42.63;40.27;;;24.20;69.80;;;;;;4964004;28;20482;-68
2022/07/24 06:12:21;;;;;;;49.13;46.43;;;24.30;69.10;;;;;;4969110;28;20506;-68
2022/07/24 06:14:48;;;;;;;46.00;43.40;;;24.40;68.70;;;;;;4969758;28;20559;-68
2022/07/24 06:17:14;;;;;;;55.67;52.60;;;24.50;68.50;;;;;;4963864;28;21011;-68
2022/07/24 06:19:42;;;;;;;40.30;38.20;;;24.60;67.90;;;;;;4965978;28;20563;-70
2022/07/24 06:22:09;;;;;;;40.53;38.33;;;24.80;67.40;;;;;;4967437;28;20522;-70
2022/07/24 06:24:35;;;;;;;47.57;45.07;;;24.90;66.90;;;;;;4966631;28;20455;-70
2022/07/24 06:27:04;;;;;;;47.50;44.80;;;24.90;66.60;;;;;;4967676;28;20477;-70
2022/07/24 06:29:33;;;;;;;53.63;50.60;;;25.00;66.50;;;;;;4967006;28;20585;-71
2022/07/24 06:32:00;;;;;;;48.57;45.87;;;25.10;66.40;;;;;;4967831;28;20587;-70
2022/07/24 06:34:27;;;;;;;41.40;39.10;;;25.30;66.00;;;;;;4968424;28;20474;-70
2022/07/24 06:36:54;;;;;;;48.37;45.67;;;25.40;65.70;;;;;;4967327;28;20551;-70
2022/07/24 06:39:20;;;;;;;41.67;39.30;;;25.50;65.20;;;;;;4974856;28;20570;-70
2022/07/24 06:41:48;;;;;;;55.37;52.30;;;25.60;64.70;;;;;;4959294;28;20483;-70
2022/07/24 06:44:15;;;;;;;41.40;39.20;;;25.70;64.50;;;;;;4956491;28;20493;-73
2022/07/24 06:46:43;;;;;;;49.83;47.23;;;25.80;64.40;;;;;;4962945;28;20556;-70
2022/07/24 06:49:10;;;;;;;45.90;43.50;;;25.80;64.30;;;;;;4961559;28;21178;-72
2022/07/24 06:51:38;;;;;;;47.93;45.43;;;25.90;64.30;;;;;;4968497;28;20482;-73
2022/07/24 06:54:05;;;;;;;56.63;53.23;;;26.00;63.70;;;;;;4969479;28;20462;-71
2022/07/24 06:56:33;;;;;;;41.00;38.90;;;26.10;63.60;;;;;;4970474;28;20467;-71
2022/07/24 06:59:00;;;;;;;40.13;37.83;;;26.20;63.10;;;;;;4972081;28;20478;-71
2022/07/24 07:01:29;;;;;;;45.00;42.20;;;26.30;62.40;;;;;;4966111;28;20450;-75
2022/07/24 07:03:58;;;;;;;48.80;45.90;;;26.30;62.10;;;;;;4961966;28;20463;-76
2022/07/24 07:06:25;;;;;;;45.30;42.90;;;26.40;62.10;;;;;;4967730;28;20560;-75
2022/07/24 07:08:52;;;;;;;44.50;42.00;;;26.50;61.40;;;;;;4970238;28;21073;-75
2022/07/24 07:11:19;;;;;;;47.67;44.77;;;26.60;60.30;;;;;;4972232;28;20774;-75
2022/07/24 07:13:46;;;;;;;55.07;52.03;;;26.50;60.50;;;;;;4971954;28;20459;-74
2022/07/24 07:16:13;;;;;;;41.87;39.67;;;26.50;60.50;;;;;;4968808;28;20466;-74
2022/07/24 07:18:40;;;;;;;44.70;42.30;;;26.40;60.50;;;;;;4972962;28;20596;-76
2022/07/24 07:21:08;;;;;;;44.50;41.93;;;26.50;61.30;;;;;;4961292;28;20466;-75
2022/07/24 07:23:35;;;;;;;43.00;40.60;;;26.60;61.50;;;;;;4966756;28;20466;-75
2022/07/24 07:26:02;;;;;;;51.83;48.83;;;26.70;61.30;;;;;;4967450;28;20466;-74
2022/07/24 07:28:29;;;;;;;45.10;42.63;;;26.80;61.00;;;;;;4966145;28;20479;-74
2022/07/24 07:30:56;;;;;;;45.80;43.00;;;26.80;61.80;;;;;;4972310;28;21073;-74
2022/07/24 07:33:23;;;;;;;48.17;45.07;;;26.90;62.80;;;;;;4964426;28;20517;-73
2022/07/24 07:35:50;;;;;;;45.97;42.97;;;26.90;63.10;;;;;;4966967;28;20544;-72
2022/07/24 07:38:18;;;;;;;46.20;43.70;;;26.90;63.20;;;;;;4969822;28;20470;-72
2022/07/24 07:40:45;;;;;;;46.70;44.30;;;26.80;63.50;;;;;;4980261;28;20552;-72
2022/07/24 07:43:12;;;;;;;46.17;43.57;;;26.80;63.70;;;;;;4971772;28;20462;-72
2022/07/24 07:45:39;;;;;;;47.10;43.87;;;26.80;63.90;;;;;;4973865;28;20576;-72
2022/07/24 07:48:06;;;;;;;47.50;44.70;;;26.90;63.60;;;;;;4967237;28;20553;-73
2022/07/24 07:50:33;;;;;;;47.00;44.10;;;26.90;63.80;;;;;;4972127;28;20565;-74
2022/07/24 07:53:01;;;;;;;42.40;39.90;;;27.00;63.80;;;;;;4970688;28;20577;-73
2022/07/24 07:55:30;;;;;;;48.83;46.10;;;27.00;63.60;;;;;;4964947;28;20470;-73
2022/07/24 07:57:57;;;;;;;47.47;44.43;;;27.10;63.20;;;;;;4965920;28;20469;-72
2022/07/24 08:00:24;;;;;;;57.97;54.67;;;27.10;63.30;;;;;;4965542;28;20509;-74
2022/07/24 08:02:51;;;;;;;43.97;41.37;;;27.10;62.90;;;;;;4961495;28;21153;-69
2022/07/24 08:05:18;;;;;;;45.27;42.80;;;27.10;62.70;;;;;;4971850;28;20980;-69
2022/07/24 08:07:44;;;;;;;46.13;43.60;;;27.20;62.60;;;;;;4969543;28;20486;-70
2022/07/24 08:10:12;;;;;;;44.00;41.20;;;27.40;61.10;;;;;;4968604;28;20483;-70
2022/07/24 08:12:40;;;;;;;43.63;41.13;;;27.40;60.70;;;;;;4975527;28;20509;-70
2022/07/24 08:15:08;;;;;;;45.47;42.93;;;27.40;61.20;;;;;;4966835;28;21034;-72
2022/07/24 08:17:35;;;;;;;41.63;39.23;;;27.40;61.10;;;;;;4966886;28;20466;-71
2022/07/24 08:20:02;;;;;;;42.00;39.60;;;27.50;60.60;;;;;;4966807;28;20483;-70
2022/07/24 08:22:29;;;;;;;40.40;38.10;;;27.60;60.00;;;;;;4968981;28;20948;-71
2022/07/24 08:24:56;;;;;;;60.80;57.53;;;27.70;59.30;;;;;;4966500;28;20557;-73
2022/07/24 08:27:23;;;;;;;44.20;41.17;;;27.80;59.20;;;;;;4967631;28;20550;-74
2022/07/24 08:29:51;;;;;;;39.97;37.77;;;27.80;58.40;;;;;;4971087;28;20486;-76
2022/07/24 08:32:18;;;;;;;49.53;46.70;;;27.70;58.70;;;;;;4970650;28;20475;-74
2022/07/24 08:34:46;;;;;;;44.47;41.87;;;27.70;58.60;;;;;;4971180;28;21023;-71
2022/07/24 08:37:13;;;;;;;52.53;49.60;;;27.80;58.00;;;;;;4966927;28;21782;-71
2022/07/24 08:39:40;;;;;;;49.13;46.43;;;27.90;57.90;;;;;;4973527;28;20561;-70
2022/07/24 08:42:08;;;;;;;40.60;38.40;;;28.00;57.60;;;;;;4974824;28;20996;-72
2022/07/24 08:44:35;;;;;;;46.60;43.90;;;28.20;56.90;;;;;;4969375;28;20497;-70
2022/07/24 08:47:04;;;;;;;42.70;40.20;;;28.20;57.10;;;;;;4969718;28;20473;-70
2022/07/24 08:49:32;;;;;;;51.03;48.10;;;28.30;56.50;;;;;;4965974;28;20896;-70
2022/07/24 08:52:01;;;;;;;49.23;46.53;;;28.30;56.20;;;;;;4969009;28;20499;-70
2022/07/24 08:54:28;;;;;;;40.10;37.90;;;28.20;56.40;;;;;;4966039;28;20489;-70
2022/07/24 08:56:55;;;;;;;41.33;39.03;;;28.30;56.60;;;;;;4964034;28;20494;-70
2022/07/24 08:59:23;;;;;;;54.90;51.90;;;28.40;56.10;;;;;;4965657;28;20570;-70
2022/07/24 09:01:51;;;;;;;40.87;38.73;;;28.60;55.50;;;;;;4971917;28;20562;-70
2022/07/24 09:04:43;;;;;;;41.23;38.63;;;28.70;55.60;;;;;;4962567;28;20502;-71
2022/07/24 09:07:12;;;;;;;49.70;47.00;;;28.70;55.50;;;;;;4967897;28;20459;-69
2022/07/24 09:09:40;;;;;;;43.40;40.80;;;28.80;55.60;;;;;;4966662;28;20596;-70
2022/07/24 09:12:10;;;;;;;38.07;35.80;;;28.80;55.00;;;;;;4965468;28;20447;-69
2022/07/24 09:14:39;;;;;;;48.20;45.30;;;29.00;54.00;;;;;;4966701;28;20534;-71
2022/07/24 09:17:08;;;;;;;39.73;37.33;;;29.00;53.80;;;;;;4967610;28;20983;-72
2022/07/24 09:19:49;;;;;;;49.10;46.40;;;28.80;54.40;;;;;;4966203;28;20860;-71
2022/07/24 09:22:25;;;;;;;40.30;37.55;;;28.90;54.00;;;;;;4968439;28;20499;-72
2022/07/24 09:25:10;;;;;;;49.87;46.87;;;28.90;53.70;;;;;;4964177;28;20203;-72
2022/07/24 09:27:41;;;;;;;40.30;37.97;;;28.70;54.30;;;;;;4966023;28;20577;-71
2022/07/24 09:30:10;;;;;;;37.40;35.30;;;28.50;54.50;;;;;;4968398;28;20568;-71
2022/07/24 09:32:37;;;;;;;42.40;39.77;;;28.40;55.30;;;;;;4967531;28;20475;-70
2022/07/24 09:35:07;;;;;;;41.23;38.93;;;28.50;54.70;;;;;;4967368;28;21029;-72
2022/07/24 09:37:34;;;;;;;49.73;46.53;;;28.70;54.40;;;;;;4966397;28;20484;-71
2022/07/24 09:40:08;;;;;;;38.80;36.50;;;28.70;54.60;;;;;;4964873;28;20479;-71
2022/07/24 09:42:39;;;;;;;49.43;46.70;;;28.90;53.50;;;;;;4969953;28;20461;-73
2022/07/24 09:45:10;;;;;;;45.20;42.70;;;28.90;53.50;;;;;;4967161;28;20965;-72
2022/07/24 09:47:38;;;;;;;51.23;48.40;;;28.70;53.50;;;;;;4975006;28;20493;-72
2022/07/24 09:50:15;;;;;;;46.63;41.50;;;28.80;53.60;;;;;;4968324;28;20487;-73
2022/07/24 09:52:43;;;;;;;49.23;46.43;;;28.90;54.10;;;;;;4972439;28;20518;-71
2022/07/24 09:55:31;;;;;;;41.57;37.97;;;29.10;53.60;;;;;;4969240;28;21015;-71
2022/07/24 09:57:59;;;;;;;268.97;53.90;;;29.20;53.80;;;;;;4962561;28;20502;-71
2022/07/24 10:00:27;;;;;;;37.80;35.40;;;29.60;53.20;;;;;;4962973;28;20992;-71
2022/07/24 10:02:58;;;;;;;53.43;50.27;;;29.90;51.40;;;;;;4967697;28;20950;-75
2022/07/24 10:05:29;;;;;;;39.50;37.30;;;29.70;51.70;;;;;;4967482;28;20494;-72
2022/07/24 10:07:58;;;;;;;39.30;36.60;;;29.30;52.50;;;;;;4963969;28;20550;-71
2022/07/24 10:10:28;;;;;;;42.50;40.27;;;29.30;52.70;;;;;;4966181;28;20606;-71
2022/07/24 10:12:55;;;;;;;40.33;37.77;;;29.30;52.10;;;;;;4967313;28;20483;-72
2022/07/24 10:15:22;;;;;;;41.27;38.97;;;29.20;53.10;;;;;;4963109;28;20547;-71
2022/07/24 10:18:17;;;;;;;41.17;38.57;;;29.30;52.80;;;;;;4971144;28;20542;-70
2022/07/24 10:20:46;;;;;;;38.60;36.57;;;29.40;51.90;;;;;;4966557;28;20542;-73
2022/07/24 10:23:22;;;;;;;40.77;38.23;;;29.30;52.10;;;;;;4964512;28;20822;-72
2022/07/24 10:25:55;;;;;;;40.40;37.90;;;29.20;52.10;;;;;;4968686;28;20545;-71
2022/07/24 10:28:39;;;;;;;39.87;37.57;;;29.30;52.20;;;;;;4965507;28;20522;-71
2022/07/24 10:31:09;;;;;;;45.60;43.13;;;29.50;51.60;;;;;;4963469;28;21076;-71
2022/07/24 10:33:38;;;;;;;56.03;53.13;;;29.40;51.20;;;;;;4966775;28;20927;-71
2022/07/24 10:36:18;;;;;;;44.20;41.90;;;29.40;51.20;;;;;;4970489;28;20835;-70
2022/07/24 10:38:52;;;;;;;38.43;36.43;;;29.80;50.30;;;;;;4963211;28;20568;-70
2022/07/24 10:41:26;;;;;;;41.20;39.00;;;29.60;51.10;;;;;;4967294;28;20889;-71
2022/07/24 10:44:17;;;;;;;40.00;37.67;;;29.60;50.90;;;;;;4965541;28;20451;-70
2022/07/24 10:47:13;;;;;;;38.83;36.60;;;30.00;49.90;;;;;;4960356;28;20554;-70
2022/07/24 10:49:46;;;;;;;42.10;39.73;;;30.20;49.70;;;;;;4924311;28;20516;-70
2022/07/24 10:52:27;;;;;;;39.37;37.20;;;29.90;50.10;;;;;;4967342;28;21016;-70
2022/07/24 10:55:24;;;;;;;40.70;38.30;;;29.80;50.40;;;;;;4967139;28;20971;-70
2022/07/24 10:57:56;;;;;;;44.00;41.60;;;29.70;51.60;;;;;;4966820;28;20494;-70
2022/07/24 11:00:25;;;;;;;38.77;36.63;;;29.90;51.10;;;;;;4966313;28;21019;-70
2022/07/24 11:03:01;;;;;;;61.87;58.53;;;30.00;50.50;;;;;;4965806;28;20542;-71
2022/07/24 11:05:31;;;;;;;39.63;37.37;;;29.90;49.60;;;;;;4967837;28;20454;-71
2022/07/24 11:08:33;;;;;;;50.80;48.00;;;30.30;48.60;;;;;;4967660;28;20513;-71
2022/07/24 11:11:17;;;;;;;50.20;47.47;;;30.60;48.10;;;;;;4966602;28;20464;-70
2022/07/24 11:13:49;;;;;;;61.70;58.60;;;30.50;49.60;;;;;;4967925;28;20510;-70
2022/07/24 11:16:25;;;;;;;37.63;35.63;;;30.80;48.70;;;;;;4968877;28;20487;-70
2022/07/24 11:19:29;;;;;;;54.37;51.37;;;30.90;47.80;;;;;;4974357;28;20573;-69
2022/07/24 11:22:10;;;;;;;37.60;35.43;;;30.80;47.90;;;;;;4968622;28;20896;-71
2022/07/24 11:25:02;;;;;;;51.57;48.87;;;30.70;48.00;;;;;;4968624;28;20529;-72
2022/07/24 11:27:45;;;;;;;40.77;38.73;;;30.20;49.00;;;;;;4970906;28;20533;-72
2022/07/24 11:30:12;;;;;;;40.97;38.47;;;30.30;48.60;;;;;;4969468;28;20478;-72
2022/07/24 11:32:40;;;;;;;39.00;36.70;;;30.50;48.50;;;;;;4970970;28;20491;-72
2022/07/24 11:35:09;;;;;;;47.43;44.80;;;30.70;48.80;;;;;;4969664;28;20549;-73
2022/07/24 11:37:37;;;;;;;39.73;37.43;;;30.60;49.20;;;;;;4959315;28;20808;-72
2022/07/24 11:40:06;;;;;;;39.00;36.80;;;30.60;48.80;;;;;;4960081;28;20940;-73
2022/07/24 11:42:35;;;;;;;47.67;44.97;;;30.60;48.80;;;;;;4963969;28;21088;-72
2022/07/24 11:45:03;;;;;;;37.97;35.57;;;30.60;48.70;;;;;;4970334;28;20542;-72
2022/07/24 11:47:30;;;;;;;55.77;52.47;;;30.60;48.90;;;;;;4971999;28;20569;-71
2022/07/24 11:50:00;;;;;;;40.07;37.80;;;30.50;48.50;;;;;;4970575;28;20486;-70
2022/07/24 11:52:32;;;;;;;39.23;37.17;;;30.40;48.80;;;;;;4974319;28;20920;-70
2022/07/24 11:55:09;;;;;;;45.17;42.67;;;30.60;48.60;;;;;;4967100;28;20584;-70
2022/07/24 11:57:39;;;;;;;52.80;49.60;;;30.80;48.20;;;;;;4968096;28;20526;-71
2022/07/24 12:00:11;;;;;;;39.97;37.77;;;30.70;48.20;;;;;;4972027;28;20909;-70
2022/07/24 12:02:38;;;;;;;54.00;51.17;;;30.70;48.70;;;;;;4973076;28;20474;-70
2022/07/24 12:05:06;;;;;;;54.70;51.90;;;31.00;47.30;;;;;;4972137;28;22539;-70
2022/07/24 12:07:33;;;;;;;44.90;42.37;;;30.90;48.00;;;;;;4972906;28;20455;-70
2022/07/24 12:10:02;;;;;;;36.83;34.60;;;30.90;47.90;;;;;;4962483;28;20824;-71
2022/07/24 12:12:31;;;;;;;37.33;35.33;;;31.10;49.00;;;;;;4972012;28;20495;-71
2022/07/24 12:15:05;;;;;;;58.83;55.73;;;31.10;47.20;;;;;;4969514;28;20568;-71
2022/07/24 12:17:34;;;;;;;45.27;42.77;;;31.20;47.30;;;;;;4962040;28;20983;-70
2022/07/24 12:20:02;;;;;;;38.10;35.90;;;31.60;45.90;;;;;;4969714;28;20561;-72
2022/07/24 12:22:29;;;;;;;48.77;46.00;;;31.70;45.50;;;;;;4970903;28;20844;-70
2022/07/24 12:24:58;;;;;;;38.27;35.70;;;31.70;44.90;;;;;;4971841;28;20537;-71
2022/07/24 12:27:36;;;;;;;41.80;39.47;;;31.50;45.30;;;;;;4969162;28;20462;-71
2022/07/24 12:30:17;;;;;;;43.80;41.40;;;31.50;45.70;;;;;;4971486;28;20482;-71
2022/07/24 12:32:57;;;;;;;57.77;54.63;;;31.40;44.90;;;;;;4967638;28;20522;-71
2022/07/24 12:35:24;;;;;;;39.00;36.80;;;31.40;44.90;;;;;;4966713;28;20481;-72